createdAt,value
2018-04-26T00:01:12.772Z,7.30
2018-04-26T00:03:40.405Z,9.37
2018-04-26T00:06:07.994Z,6.53
2018-04-26T00:08:35.702Z,6.00
2018-04-26T00:11:03.367Z,8.07
2018-04-26T00:13:32.356Z,7.20
2018-04-26T00:16:00.186Z,9.53
2018-04-26T00:18:27.795Z,7.03
2018-04-26T00:20:55.461Z,6.80
2018-04-26T00:23:23.111Z,5.20
2018-04-26T00:25:51.267Z,5.57
2018-04-26T00:28:20.633Z,12.20
2018-04-26T00:30:48.277Z,7.73
2018-04-26T00:33:15.917Z,6.07
2018-04-26T00:35:43.529Z,8.27
2018-04-26T00:38:11.126Z,5.53
2018-04-26T00:40:38.702Z,6.07
2018-04-26T00:43:07.310Z,7.27
2018-04-26T00:45:35.422Z,6.20
2018-04-26T00:48:03.401Z,4.87
2018-04-26T00:50:31.683Z,7.77
2018-04-26T00:52:59.269Z,5.03
2018-04-26T00:55:28.116Z,5.90
2018-04-26T00:57:57.077Z,8.90
2018-04-26T01:00:24.823Z,8.40
2018-04-26T01:02:54.035Z,6.40
2018-04-26T01:05:22.692Z,5.33
2018-04-26T01:07:51.101Z,6.80
2018-04-26T01:10:18.807Z,8.27
2018-04-26T01:12:46.406Z,6.03
2018-04-26T01:15:14.767Z,6.20
2018-04-26T01:17:42.409Z,5.83
2018-04-26T01:20:10.156Z,7.03
2018-04-26T01:22:37.765Z,9.63
2018-04-26T01:25:05.495Z,7.80
2018-04-26T01:27:33.560Z,5.97
2018-04-26T01:30:02.492Z,4.43
2018-04-26T01:32:30.250Z,8.27
2018-04-26T01:34:58.700Z,6.77
2018-04-26T01:37:38.252Z,4.63
2018-04-26T01:40:05.859Z,5.47
2018-04-26T01:42:33.676Z,5.63
2018-04-26T01:45:01.266Z,6.03
2018-04-26T01:47:28.855Z,7.40
2018-04-26T01:49:56.777Z,8.73
2018-04-26T01:52:24.464Z,5.10
2018-04-26T01:54:52.187Z,5.50
2018-04-26T01:57:20.647Z,6.97
2018-04-26T01:59:48.346Z,7.93
2018-04-26T02:02:18.835Z,7.00
2018-04-26T02:04:48.068Z,10.00
2018-04-26T02:07:16.552Z,5.43
2018-04-26T02:09:45.738Z,10.70
2018-04-26T02:12:14.853Z,5.07
2018-04-26T02:14:42.537Z,5.03
2018-04-26T02:20:03.375Z,5.43
2018-04-26T02:22:31.840Z,4.90
2018-04-26T02:24:59.527Z,6.57
2018-04-26T02:27:28.076Z,8.57
2018-04-26T02:29:55.798Z,14.67
2018-04-26T02:32:23.609Z,6.20
2018-04-26T02:34:51.224Z,4.13
2018-04-26T02:37:18.863Z,4.30
2018-04-26T02:39:47.444Z,11.20
2018-04-26T02:42:15.070Z,7.33
2018-04-26T02:44:42.751Z,4.03
2018-04-26T02:47:10.377Z,7.40
2018-04-26T02:49:38.785Z,6.10
2018-04-26T02:52:07.665Z,11.77
2018-04-26T02:54:35.291Z,8.07
2018-04-26T02:57:03.055Z,8.07
2018-04-26T02:59:31.527Z,8.33
2018-04-26T03:01:59.146Z,11.23
2018-04-26T03:04:26.801Z,6.43
2018-04-26T03:06:54.416Z,9.30
2018-04-26T03:09:23.302Z,8.03
2018-04-26T03:11:52.017Z,5.87
2018-04-26T03:14:19.638Z,7.80
2018-04-26T03:16:47.247Z,8.93
2018-04-26T03:19:14.920Z,7.63
2018-04-26T03:21:44.985Z,7.80
2018-04-26T03:24:13.378Z,8.07
2018-04-26T03:26:41.025Z,3.87
2018-04-26T03:29:08.716Z,4.43
2018-04-26T03:31:36.389Z,5.17
2018-04-26T03:34:04.088Z,5.43
2018-04-26T03:36:31.771Z,5.43
2018-04-26T03:38:59.348Z,6.80
2018-04-26T03:41:27.052Z,8.53
2018-04-26T03:43:56.487Z,7.47
2018-04-26T03:46:24.114Z,5.60
2018-04-26T03:48:53.014Z,10.20
2018-04-26T03:51:20.663Z,8.70
2018-04-26T03:53:48.293Z,10.23
2018-04-26T03:56:16.695Z,7.00
2018-04-26T03:58:45.126Z,6.93
2018-04-26T04:04:27.274Z,7.00
2018-04-26T04:06:54.890Z,9.93
2018-04-26T04:09:23.316Z,7.80
2018-04-26T04:11:50.973Z,10.50
2018-04-26T04:14:19.499Z,9.17
2018-04-26T04:16:47.922Z,7.87
2018-04-26T04:19:15.504Z,11.43
2018-04-26T04:21:43.152Z,13.30
2018-04-26T04:24:10.751Z,11.13
2018-04-26T04:26:38.408Z,11.63
2018-04-26T04:29:06.353Z,13.27
2018-04-26T04:31:33.977Z,10.93
2018-04-26T04:34:01.612Z,10.10
2018-04-26T04:36:29.238Z,12.30
2018-04-26T04:38:56.845Z,10.67
2018-04-26T04:41:24.527Z,11.47
2018-04-26T04:43:52.137Z,15.67
2018-04-26T04:46:19.768Z,13.67
2018-04-26T04:48:47.417Z,14.33
2018-04-26T04:51:15.851Z,16.70
2018-04-26T04:53:43.498Z,16.73
2018-04-26T04:56:11.924Z,19.73
2018-04-26T04:58:40.295Z,14.77
2018-04-26T05:01:07.997Z,11.20
2018-04-26T05:03:36.384Z,15.83
2018-04-26T05:06:04.008Z,14.63
2018-04-26T05:08:32.476Z,16.37
2018-04-26T05:11:00.123Z,13.60
2018-04-26T05:13:27.773Z,14.87
2018-04-26T05:15:56.168Z,16.37
2018-04-26T05:18:24.602Z,15.00
2018-04-26T05:20:52.311Z,11.50
2018-04-26T05:23:19.923Z,13.30
2018-04-26T05:25:47.557Z,13.10
2018-04-26T05:28:15.188Z,13.13
2018-04-26T05:30:42.960Z,11.30
2018-04-26T05:33:10.730Z,14.83
2018-04-26T05:35:38.325Z,15.00
2018-04-26T05:38:05.968Z,14.17
2018-04-26T05:40:33.747Z,12.20
2018-04-26T05:43:01.340Z,14.53
2018-04-26T05:45:29.009Z,12.90
2018-04-26T05:47:57.794Z,11.00
2018-04-26T05:50:25.561Z,15.83
2018-04-26T05:52:53.212Z,13.77
2018-04-26T05:55:20.847Z,11.57
2018-04-26T05:57:48.537Z,11.50
2018-04-26T06:00:16.146Z,11.93
2018-04-26T06:02:44.644Z,14.17
2018-04-26T06:05:12.939Z,15.83
2018-04-26T06:07:41.382Z,12.83
2018-04-26T06:10:09.109Z,10.70
2018-04-26T06:12:36.795Z,12.47
2018-04-26T06:15:05.188Z,12.37
2018-04-26T06:17:32.848Z,12.70
2018-04-26T06:20:08.342Z,13.47
2018-04-26T06:22:35.928Z,12.00
2018-04-26T06:25:03.636Z,15.43
2018-04-26T06:30:25.015Z,14.27
2018-04-26T06:32:52.662Z,13.13
2018-04-26T06:35:20.283Z,13.80
2018-04-26T06:37:48.666Z,11.63
2018-04-26T06:40:16.316Z,11.77
2018-04-26T06:42:43.938Z,12.67
2018-04-26T06:45:12.328Z,12.90
2018-04-26T06:47:39.932Z,11.53
2018-04-26T06:50:08.324Z,10.37
2018-04-26T06:52:35.975Z,12.50
2018-04-26T06:55:03.585Z,11.97
2018-04-26T06:57:31.807Z,11.33
2018-04-26T07:00:00.182Z,14.03
2018-04-26T07:02:27.862Z,11.83
2018-04-26T07:04:55.514Z,13.17
2018-04-26T07:07:23.929Z,11.73
2018-04-26T07:09:51.544Z,9.50
2018-04-26T07:12:19.143Z,13.37
2018-04-26T07:14:46.768Z,11.47
2018-04-26T07:17:15.031Z,11.43
2018-04-26T07:19:42.653Z,10.77
2018-04-26T07:22:10.338Z,12.87
2018-04-26T07:24:37.967Z,11.30
2018-04-26T07:27:06.404Z,13.57
2018-04-26T07:29:34.017Z,12.70
2018-04-26T07:32:01.769Z,11.60
2018-04-26T07:34:29.602Z,12.53
2018-04-26T07:36:57.321Z,9.10
2018-04-26T07:39:26.280Z,12.67
2018-04-26T07:41:53.946Z,11.13
2018-04-26T07:44:21.587Z,12.07
2018-04-26T07:46:50.007Z,11.00
2018-04-26T07:49:18.399Z,12.77
2018-04-26T07:51:46.042Z,9.70
2018-04-26T07:54:13.657Z,9.77
2018-04-26T07:56:41.272Z,8.43
2018-04-26T07:59:10.054Z,9.23
2018-04-26T08:01:38.209Z,7.53
2018-04-26T08:04:05.844Z,10.13
2018-04-26T08:06:33.546Z,9.33
2018-04-26T08:09:01.989Z,4.90
2018-04-26T08:11:29.663Z,4.47
2018-04-26T08:13:57.333Z,5.47
2018-04-26T08:16:24.978Z,2.50
2018-04-26T08:18:52.659Z,3.60
2018-04-26T08:21:20.359Z,2.00
2018-04-26T08:23:48.867Z,1.77
2018-04-26T08:26:16.536Z,2.67
2018-04-26T08:28:44.788Z,1.57
2018-04-26T08:31:13.178Z,2.20
2018-04-26T08:33:41.529Z,2.23
2018-04-26T08:36:09.131Z,1.73
2018-04-26T08:38:37.217Z,1.53
2018-04-26T08:41:05.224Z,0.90
2018-04-26T08:43:33.554Z,0.90
2018-04-26T08:46:01.246Z,1.07
2018-04-26T08:48:29.577Z,1.90
2018-04-26T08:50:57.138Z,1.83
2018-04-26T08:53:24.733Z,1.93
2018-04-26T08:55:53.413Z,2.03
2018-04-26T08:58:21.938Z,2.40
2018-04-26T09:00:49.863Z,3.17
2018-04-26T09:03:18.332Z,4.73
2018-04-26T09:05:47.063Z,5.37
2018-04-26T09:08:15.642Z,3.97
2018-04-26T09:10:44.364Z,5.07
2018-04-26T09:13:12.272Z,4.80
2018-04-26T09:15:39.952Z,5.03
2018-04-26T09:18:07.777Z,6.17
2018-04-26T09:20:35.705Z,7.53
2018-04-26T09:23:04.145Z,6.80
2018-04-26T09:25:31.918Z,5.00
2018-04-26T09:28:00.465Z,4.37
2018-04-26T09:30:28.193Z,4.73
2018-04-26T09:32:57.317Z,5.23
2018-04-26T09:35:24.948Z,5.43
2018-04-26T09:37:53.377Z,3.70
2018-04-26T09:40:21.737Z,4.20
2018-04-26T09:42:50.434Z,4.60
2018-04-26T09:45:19.021Z,3.97
2018-04-26T09:47:46.680Z,5.27
2018-04-26T09:50:15.071Z,7.30
2018-04-26T09:52:42.794Z,4.57
2018-04-26T09:55:10.666Z,5.07
2018-04-26T09:57:38.326Z,4.90
2018-04-26T10:00:06.636Z,5.57
2018-04-26T10:02:41.109Z,3.80
2018-04-26T10:05:11.055Z,4.63
2018-04-26T10:07:38.663Z,5.20
2018-04-26T10:10:07.613Z,5.40
2018-04-26T10:12:35.280Z,7.23
2018-04-26T10:15:03.080Z,7.60
2018-04-26T10:17:30.698Z,6.80
2018-04-26T10:19:59.581Z,4.90
2018-04-26T10:22:27.338Z,5.70
2018-04-26T10:24:55.702Z,6.97
2018-04-26T10:27:23.408Z,5.23
2018-04-26T10:29:51.392Z,7.03
2018-04-26T10:32:19.046Z,4.20
2018-04-26T10:34:46.659Z,5.60
2018-04-26T10:37:15.095Z,7.63
2018-04-26T10:39:43.508Z,7.13
2018-04-26T10:42:12.024Z,8.17
2018-04-26T10:44:44.156Z,8.53
2018-04-26T10:47:11.783Z,7.27
2018-04-26T10:49:39.376Z,6.97
2018-04-26T10:52:07.017Z,6.13
2018-04-26T10:54:35.530Z,4.83
2018-04-26T10:57:03.898Z,4.17
2018-04-26T10:59:32.354Z,5.27
2018-04-26T11:02:01.062Z,4.77
2018-04-26T11:04:28.660Z,6.77
2018-04-26T11:06:56.338Z,7.60
2018-04-26T11:09:25.267Z,5.93
2018-04-26T11:11:52.891Z,6.37
2018-04-26T11:14:20.502Z,8.60
2018-04-26T11:16:48.086Z,5.70
2018-04-26T11:19:16.176Z,6.17
2018-04-26T11:21:43.828Z,7.90
2018-04-26T11:24:11.440Z,6.17
2018-04-26T11:26:39.882Z,8.23
2018-04-26T11:29:08.251Z,11.20
2018-04-26T11:31:35.952Z,6.77
2018-04-26T11:34:04.482Z,8.07
2018-04-26T11:36:32.119Z,7.73
2018-04-26T11:38:59.742Z,7.20
2018-04-26T11:41:27.370Z,8.00
2018-04-26T11:43:55.067Z,7.60
2018-04-26T11:46:23.509Z,6.13
2018-04-26T11:48:51.876Z,6.73
2018-04-26T11:51:19.547Z,5.70
2018-04-26T11:53:47.211Z,3.47
2018-04-26T11:56:15.760Z,4.37
2018-04-26T11:58:43.428Z,5.97
2018-04-26T12:01:11.139Z,7.23
2018-04-26T12:03:38.856Z,7.47
2018-04-26T12:06:06.551Z,6.97
2018-04-26T12:08:35.058Z,7.37
2018-04-26T12:11:04.175Z,5.13
2018-04-26T12:13:36.243Z,7.87
2018-04-26T12:16:08.782Z,6.37
2018-04-26T12:18:38.378Z,7.10
2018-04-26T12:21:06.237Z,7.07
2018-04-26T12:23:33.996Z,5.27
2018-04-26T12:26:02.291Z,9.90
2018-04-26T12:31:04.689Z,6.23
2018-04-26T12:33:32.361Z,6.27
2018-04-26T12:36:00.406Z,7.00
2018-04-26T12:38:28.931Z,9.27
2018-04-26T12:40:56.687Z,7.40
2018-04-26T12:43:25.162Z,6.00
2018-04-26T12:45:52.763Z,11.90
2018-04-26T12:48:21.786Z,5.77
2018-04-26T12:50:50.264Z,6.67
2018-04-26T12:53:18.045Z,5.70
2018-04-26T12:55:46.624Z,7.23
2018-04-26T12:58:15.657Z,5.37
2018-04-26T13:00:47.260Z,3.87
2018-04-26T13:03:16.981Z,4.10
2018-04-26T13:05:45.502Z,8.90
2018-04-26T13:08:13.870Z,10.53
2018-04-26T13:11:02.700Z,5.87
2018-04-26T13:13:32.248Z,7.17
2018-04-26T13:18:48.385Z,7.97
2018-04-26T13:21:16.644Z,6.23
2018-04-26T13:23:44.584Z,5.17
2018-04-26T13:26:12.285Z,4.60
2018-04-26T13:28:40.043Z,7.00
2018-04-26T13:31:08.098Z,3.73
2018-04-26T13:33:36.573Z,5.50
2018-04-26T13:36:05.011Z,6.77
2018-04-26T13:38:34.858Z,3.50
2018-04-26T13:41:03.278Z,5.87
2018-04-26T13:43:31.790Z,4.57
2018-04-26T13:45:59.437Z,7.13
2018-04-26T13:48:28.180Z,6.80
2018-04-26T13:50:56.655Z,5.47
2018-04-26T13:53:25.292Z,4.47
2018-04-26T13:55:53.000Z,5.90
2018-04-26T13:58:22.906Z,3.10
2018-04-26T14:00:51.745Z,4.50
2018-04-26T14:03:19.412Z,4.97
2018-04-26T14:05:48.118Z,7.47
2018-04-26T14:08:17.515Z,5.37
2018-04-26T14:13:18.947Z,5.63
2018-04-26T14:15:48.924Z,8.00
2018-04-26T14:18:17.336Z,4.73
2018-04-26T14:20:45.558Z,7.43
2018-04-26T14:23:13.293Z,5.60
2018-04-26T14:25:41.550Z,4.57
2018-04-26T14:31:06.875Z,5.50
2018-04-26T14:33:34.506Z,4.97
2018-04-26T14:36:02.204Z,4.47
2018-04-26T14:38:30.464Z,4.73
2018-04-26T14:41:00.425Z,3.87
2018-04-26T14:43:28.489Z,4.97
2018-04-26T14:45:56.192Z,3.27
2018-04-26T14:48:23.827Z,6.90
2018-04-26T14:50:51.591Z,4.63
2018-04-26T14:53:23.781Z,3.83
2018-04-26T14:55:51.699Z,3.97
2018-04-26T14:58:21.222Z,3.50
2018-04-26T15:00:51.233Z,3.70
2018-04-26T15:03:25.266Z,4.30
2018-04-26T15:05:53.246Z,4.83
2018-04-26T15:08:22.525Z,6.73
2018-04-26T15:10:52.032Z,7.33
2018-04-26T15:13:19.742Z,5.17
2018-04-26T15:15:48.346Z,4.20
2018-04-26T15:18:16.057Z,3.47
2018-04-26T15:20:44.496Z,3.77
2018-04-26T15:23:13.718Z,4.83
2018-04-26T15:25:41.447Z,4.27
2018-04-26T15:28:10.163Z,6.07
2018-04-26T15:30:37.879Z,3.27
2018-04-26T15:33:05.563Z,5.60
2018-04-26T15:35:33.301Z,5.27
2018-04-26T15:40:53.646Z,3.00
2018-04-26T15:43:22.247Z,6.70
2018-04-26T15:45:51.131Z,4.53
2018-04-26T15:48:19.887Z,4.47
2018-04-26T15:51:02.697Z,8.33
2018-04-26T15:53:42.322Z,5.37
2018-04-26T15:56:28.399Z,6.20
2018-04-26T16:02:22.607Z,4.27
2018-04-26T16:08:21.228Z,7.13
2018-04-26T16:11:06.600Z,4.10
2018-04-26T16:13:52.227Z,3.53
2018-04-26T16:16:37.716Z,3.43
2018-04-26T16:19:28.059Z,6.43
2018-04-26T16:22:14.988Z,3.27
2018-04-26T16:24:55.280Z,3.43
2018-04-26T16:27:40.833Z,3.27
2018-04-26T16:30:20.577Z,5.97
2018-04-26T16:33:05.198Z,4.20
2018-04-26T16:35:44.717Z,4.87
2018-04-26T16:38:24.374Z,5.93
2018-04-26T16:40:52.017Z,5.50
2018-04-26T16:43:19.651Z,6.73
2018-04-26T16:45:47.290Z,5.07
2018-04-26T16:48:16.284Z,4.77
2018-04-26T16:50:43.956Z,6.10
2018-04-26T16:53:11.834Z,4.30
2018-04-26T16:55:39.720Z,8.47
2018-04-26T16:58:09.061Z,4.83
2018-04-26T17:00:38.014Z,6.03
2018-04-26T17:03:05.918Z,4.13
2018-04-26T17:05:33.721Z,5.27
2018-04-26T17:08:02.961Z,3.87
2018-04-26T17:10:32.667Z,5.50
2018-04-26T17:13:00.503Z,3.47
2018-04-26T17:15:29.018Z,4.47
2018-04-26T17:17:56.728Z,3.93
2018-04-26T17:20:25.799Z,5.40
2018-04-26T17:22:53.526Z,5.60
2018-04-26T17:25:21.283Z,4.53
2018-04-26T17:27:49.032Z,6.47
2018-04-26T17:30:18.749Z,6.70
2018-04-26T17:32:47.458Z,5.73
2018-04-26T17:35:15.406Z,8.00
2018-04-26T17:37:43.871Z,4.37
2018-04-26T17:40:11.660Z,8.37
2018-04-26T17:42:39.311Z,6.03
2018-04-26T17:45:07.040Z,4.17
2018-04-26T17:47:34.659Z,8.10
2018-04-26T17:50:02.907Z,4.03
2018-04-26T17:52:30.566Z,4.20
2018-04-26T17:54:59.325Z,3.87
2018-04-26T17:57:27.137Z,4.57
2018-04-26T17:59:54.801Z,6.67
2018-04-26T18:02:23.336Z,4.70
2018-04-26T18:04:51.026Z,6.07
2018-04-26T18:07:20.748Z,5.30
2018-04-26T18:09:49.887Z,3.23
2018-04-26T18:12:17.592Z,4.13
2018-04-26T18:14:48.016Z,8.33
2018-04-26T18:17:15.858Z,4.63
2018-04-26T18:19:43.551Z,8.07
2018-04-26T18:22:12.108Z,8.87
2018-04-26T18:24:41.369Z,4.53
2018-04-26T18:27:09.134Z,6.33
2018-04-26T18:29:37.098Z,5.83
2018-04-26T18:32:05.799Z,5.80
2018-04-26T18:34:34.802Z,6.50
2018-04-26T18:37:02.555Z,3.53
2018-04-26T18:39:30.494Z,5.67
2018-04-26T18:41:59.142Z,5.47
2018-04-26T18:44:26.791Z,7.07
2018-04-26T18:46:54.426Z,4.10
2018-04-26T18:49:22.038Z,6.60
2018-04-26T18:51:50.484Z,2.23
2018-04-26T18:54:19.061Z,4.73
2018-04-26T18:56:47.929Z,4.77
2018-04-26T18:59:15.509Z,5.37
2018-04-26T19:01:44.132Z,4.33
2018-04-26T19:04:13.340Z,3.67
2018-04-26T19:06:41.565Z,3.83
2018-04-26T19:09:09.311Z,4.23
2018-04-26T19:11:37.034Z,2.97
2018-04-26T19:14:04.691Z,3.93
2018-04-26T19:16:33.239Z,4.67
2018-04-26T19:19:01.704Z,4.60
2018-04-26T19:21:30.391Z,2.47
2018-04-26T19:23:58.070Z,2.20
2018-04-26T19:26:25.805Z,2.53
2018-04-26T19:28:54.955Z,2.83
2018-04-26T19:31:23.379Z,3.23
2018-04-26T19:33:51.078Z,4.43
2018-04-26T19:36:21.362Z,5.57
2018-04-26T19:38:49.300Z,4.80
2018-04-26T19:41:17.662Z,4.37
2018-04-26T19:43:45.323Z,3.23
2018-04-26T19:46:13.031Z,4.77
2018-04-26T19:48:40.638Z,3.47
2018-04-26T19:51:08.372Z,3.83
2018-04-26T19:53:37.276Z,2.33
2018-04-26T19:56:05.229Z,5.77
2018-04-26T19:58:34.019Z,3.80
2018-04-26T20:01:02.446Z,3.43
2018-04-26T20:03:30.183Z,3.40
2018-04-26T20:05:58.216Z,6.83
2018-04-26T20:08:25.936Z,4.50
2018-04-26T20:10:54.272Z,3.73
2018-04-26T20:13:22.728Z,3.63
2018-04-26T20:15:50.788Z,4.00
2018-04-26T20:18:19.446Z,5.70
2018-04-26T20:20:47.538Z,5.13
2018-04-26T20:23:15.317Z,6.87
2018-04-26T20:25:43.864Z,3.70
2018-04-26T20:28:12.104Z,5.53
2018-04-26T20:30:41.872Z,5.00
2018-04-26T20:33:10.283Z,5.83
2018-04-26T20:35:38.464Z,4.23
2018-04-26T20:38:06.708Z,6.23
2018-04-26T20:40:35.934Z,5.13
2018-04-26T20:43:03.615Z,7.07
2018-04-26T20:45:31.964Z,3.97
2018-04-26T20:47:59.639Z,4.23
2018-04-26T20:50:28.177Z,5.20
2018-04-26T20:52:56.430Z,4.87
2018-04-26T20:55:26.084Z,5.80
2018-04-26T20:57:54.373Z,4.50
2018-04-26T21:00:22.826Z,4.63
2018-04-26T21:02:51.134Z,6.80
2018-04-26T21:05:18.872Z,3.23
2018-04-26T21:07:47.154Z,3.20
2018-04-26T21:10:15.391Z,3.13
2018-04-26T21:12:43.173Z,4.83
2018-04-26T21:15:11.249Z,4.87
2018-04-26T21:17:41.543Z,5.57
2018-04-26T21:20:09.787Z,5.20
2018-04-26T21:22:39.481Z,3.47
2018-04-26T21:25:07.912Z,6.57
2018-04-26T21:27:37.207Z,5.33
2018-04-26T21:30:05.322Z,5.43
2018-04-26T21:32:33.582Z,4.70
2018-04-26T21:35:01.862Z,3.93
2018-04-26T21:37:30.126Z,5.13
2018-04-26T21:39:58.910Z,4.67
2018-04-26T21:42:26.970Z,5.00
2018-04-26T21:44:56.258Z,5.40
2018-04-26T21:47:24.808Z,3.30
2018-04-26T21:50:00.669Z,5.47
2018-04-26T21:52:34.587Z,6.13
2018-04-26T21:55:08.424Z,7.47
2018-04-26T21:57:44.676Z,2.90
2018-04-26T22:00:20.173Z,5.70
2018-04-26T22:02:48.751Z,5.33
2018-04-26T22:08:11.215Z,4.90
2018-04-26T22:10:39.753Z,5.60
2018-04-26T22:13:08.388Z,6.57
2018-04-26T22:15:36.959Z,5.73
2018-04-26T22:18:05.703Z,4.23
2018-04-26T22:20:33.398Z,6.77
2018-04-26T22:23:02.680Z,5.07
2018-04-26T22:25:30.293Z,3.93
2018-04-26T22:27:59.870Z,3.40
2018-04-26T22:30:27.527Z,6.83
2018-04-26T22:32:55.933Z,5.50
2018-04-26T22:35:23.601Z,7.03
2018-04-26T22:37:51.208Z,4.57
2018-04-26T22:40:21.117Z,4.67
2018-04-26T22:42:49.498Z,4.20
2018-04-26T22:45:18.419Z,5.70
2018-04-26T22:47:46.929Z,5.67
2018-04-26T22:50:15.900Z,6.83
2018-04-26T22:52:43.537Z,5.70
2018-04-26T22:55:11.602Z,3.83
2018-04-26T22:57:40.071Z,4.60
2018-04-26T23:00:08.449Z,6.10
2018-04-26T23:02:38.344Z,6.70
2018-04-26T23:05:07.086Z,6.73
2018-04-26T23:07:35.506Z,5.13
2018-04-26T23:10:04.004Z,6.50
2018-04-26T23:12:32.252Z,8.30
2018-04-26T23:15:01.647Z,7.40
2018-04-26T23:17:30.106Z,7.27
2018-04-26T23:19:57.773Z,7.97
2018-04-26T23:22:25.357Z,6.60
2018-04-26T23:24:53.019Z,4.57
2018-04-26T23:27:21.099Z,6.40
2018-04-26T23:29:50.336Z,7.07
2018-04-26T23:32:20.369Z,5.07
2018-04-26T23:34:48.838Z,7.17
2018-04-26T23:37:18.001Z,5.20
2018-04-26T23:39:46.220Z,5.90
2018-04-26T23:42:13.920Z,6.63
2018-04-26T23:44:41.580Z,5.47
2018-04-26T23:47:09.635Z,4.43
2018-04-26T23:49:40.347Z,4.77
2018-04-26T23:52:10.856Z,5.87
2018-04-26T23:54:38.606Z,6.43
2018-04-26T23:57:06.222Z,5.67
2018-04-26T23:59:34.582Z,6.23
